createdAt,value
2018-11-03T00:00:29.585Z,0.00
2018-11-03T00:01:29.600Z,0.00
2018-11-03T00:02:29.615Z,0.00
2018-11-03T00:03:29.653Z,0.00
2018-11-03T00:04:29.647Z,0.00
2018-11-03T00:05:29.661Z,0.00
2018-11-03T00:06:29.676Z,0.00
2018-11-03T00:07:29.692Z,0.00
2018-11-03T00:08:29.705Z,0.00
2018-11-03T00:09:29.722Z,0.00
2018-11-03T00:10:29.738Z,0.00
2018-11-03T00:11:29.756Z,0.00
2018-11-03T00:12:29.768Z,0.00
2018-11-03T00:13:29.785Z,0.00
2018-11-03T00:14:29.799Z,0.00
2018-11-03T00:15:29.813Z,0.00
2018-11-03T00:16:29.828Z,0.00
2018-11-03T00:17:29.843Z,0.00
2018-11-03T00:18:29.858Z,0.00
2018-11-03T00:19:29.874Z,0.00
2018-11-03T00:20:29.889Z,0.00
2018-11-03T00:21:29.905Z,0.00
2018-11-03T00:22:29.940Z,0.00
2018-11-03T00:23:29.936Z,0.00
2018-11-03T00:24:29.950Z,0.00
2018-11-03T00:25:29.965Z,0.00
2018-11-03T00:26:29.981Z,0.00
2018-11-03T00:27:30.000Z,0.00
2018-11-03T00:28:30.014Z,0.00
2018-11-03T00:29:30.028Z,0.00
2018-11-03T00:30:30.041Z,0.00
2018-11-03T00:31:30.057Z,0.00
2018-11-03T00:32:30.072Z,0.00
2018-11-03T00:33:30.087Z,0.00
2018-11-03T00:34:30.103Z,0.00
2018-11-03T00:35:30.118Z,0.00
2018-11-03T00:36:30.134Z,0.00
2018-11-03T00:37:30.149Z,0.00
2018-11-03T00:38:30.163Z,0.00
2018-11-03T00:39:30.179Z,0.00
2018-11-03T00:40:30.216Z,0.00
2018-11-03T00:41:30.211Z,0.00
2018-11-03T00:42:30.227Z,0.00
2018-11-03T00:43:30.240Z,0.00
2018-11-03T00:44:30.255Z,0.00
2018-11-03T00:45:30.270Z,0.00
2018-11-03T00:46:30.321Z,0.00
2018-11-03T00:47:30.301Z,0.00
2018-11-03T00:48:30.315Z,0.00
2018-11-03T00:49:30.332Z,0.00
2018-11-03T00:50:30.346Z,0.00
2018-11-03T00:51:30.362Z,0.00
2018-11-03T00:52:30.375Z,0.00
2018-11-03T00:53:30.392Z,0.00
2018-11-03T00:54:30.407Z,0.00
2018-11-03T00:55:30.423Z,0.00
2018-11-03T00:56:30.437Z,0.00
2018-11-03T00:57:30.453Z,0.00
2018-11-03T00:58:30.469Z,0.00
2018-11-03T00:59:30.483Z,0.00
2018-11-03T01:00:30.498Z,0.00
2018-11-03T01:01:30.514Z,0.00
2018-11-03T01:02:30.529Z,0.00
2018-11-03T01:03:30.542Z,0.00
2018-11-03T01:04:30.560Z,0.00
2018-11-03T01:05:30.576Z,0.00
2018-11-03T01:06:30.588Z,0.00
2018-11-03T01:07:30.604Z,0.00
2018-11-03T01:08:30.620Z,0.00
2018-11-03T01:09:30.667Z,0.00
2018-11-03T01:10:30.651Z,0.00
2018-11-03T01:11:30.666Z,0.00
2018-11-03T01:12:30.681Z,0.00
2018-11-03T01:13:30.695Z,0.00
2018-11-03T01:14:30.711Z,0.00
2018-11-03T01:15:30.725Z,0.00
2018-11-03T01:16:30.741Z,0.00
2018-11-03T01:17:30.758Z,0.00
2018-11-03T01:18:30.772Z,0.00
2018-11-03T01:19:30.786Z,0.00
2018-11-03T01:20:30.802Z,0.00
2018-11-03T01:21:30.818Z,0.00
2018-11-03T01:22:30.832Z,0.00
2018-11-03T01:23:30.891Z,0.00
2018-11-03T01:24:30.864Z,0.00
2018-11-03T01:25:30.875Z,0.00
2018-11-03T01:26:30.891Z,0.00
2018-11-03T01:27:30.905Z,0.00
2018-11-03T01:28:30.921Z,0.00
2018-11-03T01:29:30.973Z,0.00
2018-11-03T01:30:30.951Z,0.00
2018-11-03T01:31:30.965Z,0.00
2018-11-03T01:32:31.025Z,0.00
2018-11-03T01:33:30.998Z,0.00
2018-11-03T01:34:31.010Z,0.00
2018-11-03T01:35:31.031Z,0.00
2018-11-03T01:36:31.040Z,0.00
2018-11-03T01:37:31.055Z,0.00
2018-11-03T01:38:31.068Z,0.00
2018-11-03T01:39:31.083Z,0.00
2018-11-03T01:40:31.099Z,0.00
2018-11-03T01:41:31.115Z,0.00
2018-11-03T01:42:31.128Z,0.00
2018-11-03T01:43:31.143Z,0.00
2018-11-03T01:44:31.184Z,0.00
2018-11-03T01:45:31.174Z,0.00
2018-11-03T01:46:31.188Z,0.00
2018-11-03T01:47:31.203Z,0.00
2018-11-03T01:48:31.218Z,0.00
2018-11-03T01:49:31.234Z,0.00
2018-11-03T01:50:31.250Z,0.00
2018-11-03T01:51:31.262Z,0.00
2018-11-03T01:52:31.277Z,0.00
2018-11-03T01:53:31.292Z,0.00
2018-11-03T01:54:31.306Z,0.00
2018-11-03T01:55:31.321Z,0.00
2018-11-03T01:56:31.339Z,0.00
2018-11-03T01:57:31.353Z,0.00
2018-11-03T01:58:31.368Z,0.00
2018-11-03T01:59:31.381Z,0.00
2018-11-03T02:00:31.413Z,0.00
2018-11-03T02:01:31.415Z,0.00
2018-11-03T02:02:31.425Z,0.00
2018-11-03T02:03:31.440Z,0.00
2018-11-03T02:04:31.456Z,0.00
2018-11-03T02:05:31.471Z,0.00
2018-11-03T02:06:31.483Z,0.00
2018-11-03T02:07:31.499Z,0.00
2018-11-03T02:08:31.515Z,0.00
2018-11-03T02:09:31.529Z,0.00
2018-11-03T02:10:31.544Z,0.00
2018-11-03T02:11:31.559Z,0.00
2018-11-03T02:12:31.573Z,0.00
2018-11-03T02:13:31.590Z,0.00
2018-11-03T02:14:31.603Z,0.00
2018-11-03T02:15:31.618Z,0.00
2018-11-03T02:16:31.632Z,0.00
2018-11-03T02:17:31.649Z,0.00
2018-11-03T02:18:31.663Z,0.00
2018-11-03T02:19:31.678Z,0.00
2018-11-03T02:20:31.693Z,0.00
2018-11-03T02:21:31.708Z,0.00
2018-11-03T02:22:31.722Z,0.00
2018-11-03T02:23:31.737Z,0.00
2018-11-03T02:24:31.753Z,0.00
2018-11-03T02:25:31.768Z,0.00
2018-11-03T02:26:31.783Z,0.00
2018-11-03T02:27:31.797Z,0.00
2018-11-03T02:28:31.812Z,0.00
2018-11-03T02:29:31.841Z,0.00
2018-11-03T02:30:31.841Z,0.00
2018-11-03T02:31:31.865Z,0.00
2018-11-03T02:32:31.872Z,0.00
2018-11-03T02:33:31.887Z,0.00
2018-11-03T02:34:31.916Z,0.00
2018-11-03T02:35:31.915Z,0.00
2018-11-03T02:36:31.933Z,0.00
2018-11-03T02:37:31.947Z,0.00
2018-11-03T02:38:31.962Z,0.00
2018-11-03T02:39:31.975Z,0.00
2018-11-03T02:40:31.991Z,0.00
2018-11-03T02:41:32.006Z,0.00
2018-11-03T02:42:32.020Z,0.00
2018-11-03T02:43:32.038Z,0.00
2018-11-03T02:44:32.050Z,0.00
2018-11-03T02:45:32.065Z,0.00
2018-11-03T02:46:32.081Z,0.00
2018-11-03T02:47:32.095Z,0.00
2018-11-03T02:48:32.110Z,0.00
2018-11-03T02:49:32.128Z,0.00
2018-11-03T02:50:32.144Z,0.00
2018-11-03T02:51:32.154Z,0.00
2018-11-03T02:52:32.169Z,0.00
2018-11-03T02:53:32.183Z,0.00
2018-11-03T02:54:32.198Z,0.00
2018-11-03T02:55:32.213Z,0.00
2018-11-03T02:56:32.228Z,0.00
2018-11-03T02:57:32.244Z,0.00
2018-11-03T02:58:32.257Z,0.00
2018-11-03T02:59:32.272Z,0.00
2018-11-03T03:00:32.287Z,0.00
2018-11-03T03:01:32.302Z,0.00
2018-11-03T03:02:32.317Z,0.00
2018-11-03T03:03:32.331Z,0.00
2018-11-03T03:04:32.346Z,0.00
2018-11-03T03:05:32.361Z,0.00
2018-11-03T03:06:32.374Z,0.00
2018-11-03T03:07:32.389Z,0.00
2018-11-03T03:08:32.404Z,0.00
2018-11-03T03:09:32.420Z,0.00
2018-11-03T03:10:32.434Z,0.00
2018-11-03T03:11:32.448Z,0.00
2018-11-03T03:12:32.464Z,0.00
2018-11-03T03:13:32.481Z,0.00
2018-11-03T03:14:32.492Z,0.00
2018-11-03T03:15:32.517Z,0.00
2018-11-03T03:16:32.523Z,0.00
2018-11-03T03:17:32.541Z,0.00
2018-11-03T03:18:32.550Z,0.00
2018-11-03T03:19:32.567Z,0.00
2018-11-03T03:20:32.580Z,0.00
2018-11-03T03:21:32.599Z,0.00
2018-11-03T03:22:32.608Z,0.00
2018-11-03T03:23:32.622Z,0.00
2018-11-03T03:24:32.638Z,0.00
2018-11-03T03:25:32.654Z,0.00
2018-11-03T03:26:32.732Z,0.00
2018-11-03T03:27:32.681Z,0.00
2018-11-03T03:28:32.695Z,0.00
2018-11-03T03:29:32.787Z,0.00
2018-11-03T03:30:32.724Z,0.00
2018-11-03T03:31:32.798Z,0.00
2018-11-03T03:32:32.762Z,0.00
2018-11-03T03:33:32.768Z,0.00
2018-11-03T03:34:32.784Z,0.00
2018-11-03T03:35:32.798Z,0.00
2018-11-03T03:36:32.811Z,0.00
2018-11-03T03:37:32.827Z,0.00
2018-11-03T03:38:32.841Z,0.00
2018-11-03T03:39:32.856Z,0.00
2018-11-03T03:40:32.869Z,0.00
2018-11-03T03:41:32.887Z,0.00
2018-11-03T03:42:32.900Z,0.00
2018-11-03T03:43:32.914Z,0.00
2018-11-03T03:44:32.929Z,0.00
2018-11-03T03:45:32.944Z,0.00
2018-11-03T03:46:32.957Z,0.00
2018-11-03T03:47:32.973Z,0.00
2018-11-03T03:48:32.987Z,0.00
2018-11-03T03:49:33.002Z,0.00
2018-11-03T03:50:33.018Z,0.00
2018-11-03T03:51:33.035Z,0.00
2018-11-03T03:52:33.044Z,0.00
2018-11-03T03:53:33.059Z,0.00
2018-11-03T03:54:33.076Z,0.00
2018-11-03T03:55:33.090Z,0.00
2018-11-03T03:56:33.103Z,0.00
2018-11-03T03:57:33.117Z,0.00
2018-11-03T03:58:33.133Z,0.00
2018-11-03T03:59:33.146Z,0.00
2018-11-03T04:00:33.161Z,0.00
2018-11-03T04:01:33.176Z,0.00
2018-11-03T04:02:33.189Z,0.00
2018-11-03T04:03:33.203Z,0.00
2018-11-03T04:04:33.218Z,0.00
2018-11-03T04:05:33.233Z,0.00
2018-11-03T04:06:33.250Z,0.00
2018-11-03T04:07:33.261Z,0.00
2018-11-03T04:08:33.275Z,0.00
2018-11-03T04:09:33.297Z,0.00
2018-11-03T04:10:33.304Z,0.00
2018-11-03T04:11:33.319Z,0.00
2018-11-03T04:12:33.334Z,0.00
2018-11-03T04:13:33.351Z,0.00
2018-11-03T04:14:33.361Z,0.00
2018-11-03T04:15:33.377Z,0.00
2018-11-03T04:16:33.391Z,0.00
2018-11-03T04:17:33.405Z,0.00
2018-11-03T04:18:33.421Z,0.00
2018-11-03T04:19:33.434Z,0.00
2018-11-03T04:20:33.448Z,0.00
2018-11-03T04:21:33.464Z,0.00
2018-11-03T04:22:33.478Z,0.00
2018-11-03T04:23:33.494Z,0.00
2018-11-03T04:24:33.507Z,0.00
2018-11-03T04:25:33.522Z,0.00
2018-11-03T04:26:33.535Z,0.00
2018-11-03T04:27:33.587Z,0.00
2018-11-03T04:28:33.565Z,0.00
2018-11-03T04:29:33.578Z,0.00
2018-11-03T04:30:33.592Z,0.00
2018-11-03T04:31:33.607Z,0.00
2018-11-03T04:32:33.623Z,0.00
2018-11-03T04:33:33.636Z,0.00
2018-11-03T04:34:33.655Z,0.00
2018-11-03T04:35:33.664Z,0.00
2018-11-03T04:36:33.692Z,0.00
2018-11-03T04:37:33.693Z,0.00
2018-11-03T04:38:33.708Z,0.00
2018-11-03T04:39:33.721Z,0.00
2018-11-03T04:40:33.739Z,0.00
2018-11-03T04:41:33.750Z,0.00
2018-11-03T04:42:33.764Z,0.00
2018-11-03T04:43:33.777Z,0.00
2018-11-03T04:44:33.791Z,0.00
2018-11-03T04:45:33.859Z,0.00
2018-11-03T04:46:33.821Z,0.00
2018-11-03T04:47:33.835Z,0.00
2018-11-03T04:48:33.868Z,0.00
2018-11-03T04:49:33.863Z,0.00
2018-11-03T04:50:33.878Z,0.00
2018-11-03T04:51:33.893Z,0.00
2018-11-03T04:52:33.909Z,0.00
2018-11-03T04:53:33.945Z,0.00
2018-11-03T04:54:33.935Z,0.00
2018-11-03T04:55:33.967Z,0.00
2018-11-03T04:56:33.964Z,0.00
2018-11-03T04:57:33.978Z,0.00
2018-11-03T04:58:33.992Z,0.00
2018-11-03T04:59:34.010Z,0.00
2018-11-03T05:00:34.021Z,0.00
2018-11-03T05:01:34.036Z,0.00
2018-11-03T05:02:34.049Z,0.00
2018-11-03T05:03:34.064Z,0.00
2018-11-03T05:04:34.078Z,0.00
2018-11-03T05:05:34.092Z,0.00
2018-11-03T05:06:34.108Z,0.00
2018-11-03T05:07:34.123Z,0.00
2018-11-03T05:08:34.135Z,0.00
2018-11-03T05:09:34.150Z,0.00
2018-11-03T05:10:34.285Z,0.00
2018-11-03T05:11:34.180Z,0.00
2018-11-03T05:12:34.193Z,0.00
2018-11-03T05:13:34.208Z,0.00
2018-11-03T05:14:34.226Z,0.00
2018-11-03T05:15:34.235Z,0.00
2018-11-03T05:16:34.250Z,0.00
2018-11-03T05:17:34.265Z,0.00
2018-11-03T05:18:34.279Z,0.00
2018-11-03T05:19:34.293Z,0.00
2018-11-03T05:20:34.307Z,0.00
2018-11-03T05:21:34.322Z,0.00
2018-11-03T05:22:34.336Z,0.00
2018-11-03T05:23:34.350Z,0.00
2018-11-03T05:24:34.369Z,0.00
2018-11-03T05:25:34.379Z,0.00
2018-11-03T05:26:34.393Z,0.00
2018-11-03T05:27:34.406Z,0.00
2018-11-03T05:28:34.421Z,0.00
2018-11-03T05:29:34.452Z,0.00
2018-11-03T05:30:34.452Z,0.00
2018-11-03T05:31:34.465Z,0.00
2018-11-03T05:32:34.481Z,0.00
2018-11-03T05:33:34.496Z,0.00
2018-11-03T05:34:34.546Z,0.00
2018-11-03T05:35:34.522Z,0.00
2018-11-03T05:36:34.536Z,0.00
2018-11-03T05:37:34.551Z,0.00
2018-11-03T05:38:34.566Z,0.00
2018-11-03T05:39:34.577Z,0.00
2018-11-03T05:40:34.593Z,0.00
2018-11-03T05:41:34.640Z,0.00
2018-11-03T05:42:34.620Z,0.00
2018-11-03T05:43:34.636Z,0.00
2018-11-03T05:44:34.649Z,0.00
2018-11-03T05:45:34.665Z,0.00
2018-11-03T05:46:34.757Z,0.00
2018-11-03T05:47:34.694Z,0.00
2018-11-03T05:48:34.708Z,0.00
2018-11-03T05:49:34.722Z,0.00
2018-11-03T05:50:34.736Z,0.00
2018-11-03T05:51:34.751Z,0.00
2018-11-03T05:52:34.765Z,0.00
2018-11-03T05:53:34.779Z,0.00
2018-11-03T05:54:34.797Z,0.00
2018-11-03T05:55:34.808Z,0.00
2018-11-03T05:56:34.822Z,0.00
2018-11-03T05:57:34.837Z,0.00
2018-11-03T05:58:34.850Z,0.00
2018-11-03T05:59:34.866Z,0.00
2018-11-03T06:00:34.879Z,0.00
2018-11-03T06:01:34.895Z,0.00
2018-11-03T06:02:34.908Z,0.00
2018-11-03T06:03:34.926Z,0.00
2018-11-03T06:04:34.936Z,0.00
2018-11-03T06:05:34.952Z,0.00
2018-11-03T06:06:34.966Z,0.00
2018-11-03T06:07:34.981Z,0.00
2018-11-03T06:08:35.002Z,0.00
2018-11-03T06:09:35.008Z,0.00
2018-11-03T06:10:35.023Z,0.00
2018-11-03T06:11:35.038Z,0.00
2018-11-03T06:12:35.052Z,0.00
2018-11-03T06:13:35.067Z,0.00
2018-11-03T06:14:35.080Z,0.00
2018-11-03T06:15:35.217Z,0.00
2018-11-03T06:16:35.110Z,0.00
2018-11-03T06:17:35.123Z,0.00
2018-11-03T06:18:35.137Z,0.00
2018-11-03T06:19:35.304Z,0.00
2018-11-03T06:20:35.167Z,0.00
2018-11-03T06:21:35.180Z,0.00
2018-11-03T06:22:35.301Z,0.00
2018-11-03T06:23:35.213Z,0.00
2018-11-03T06:24:35.223Z,0.00
2018-11-03T06:25:35.241Z,0.00
2018-11-03T06:26:35.252Z,0.00
2018-11-03T06:27:35.271Z,0.00
2018-11-03T06:28:35.279Z,5.63
2018-11-03T06:29:35.295Z,5.63
2018-11-03T06:30:35.308Z,5.63
2018-11-03T06:31:35.323Z,5.63
2018-11-03T06:32:35.335Z,5.63
2018-11-03T06:33:35.350Z,5.63
2018-11-03T06:34:35.365Z,5.63
2018-11-03T06:35:35.379Z,5.63
2018-11-03T06:36:35.392Z,5.63
2018-11-03T06:37:35.407Z,5.63
2018-11-03T06:38:35.420Z,5.63
2018-11-03T06:39:35.434Z,11.25
2018-11-03T06:40:35.448Z,11.25
2018-11-03T06:41:35.462Z,11.25
2018-11-03T06:42:35.476Z,11.25
2018-11-03T06:43:35.490Z,11.25
2018-11-03T06:44:35.506Z,11.25
2018-11-03T06:45:35.534Z,11.25
2018-11-03T06:46:35.633Z,11.25
2018-11-03T06:47:35.702Z,16.88
2018-11-03T06:48:35.561Z,16.88
2018-11-03T06:49:35.575Z,16.88
2018-11-03T06:50:35.588Z,16.88
2018-11-03T06:51:35.603Z,16.88
2018-11-03T06:52:35.618Z,16.88
2018-11-03T06:53:35.634Z,16.88
2018-11-03T06:54:35.657Z,22.50
2018-11-03T06:55:35.697Z,22.50
2018-11-03T06:56:35.676Z,22.50
2018-11-03T06:57:35.688Z,22.50
2018-11-03T06:58:35.702Z,22.50
2018-11-03T06:59:35.718Z,22.50
2018-11-03T07:00:35.731Z,22.50
2018-11-03T07:01:35.746Z,28.13
2018-11-03T07:02:35.759Z,28.13
2018-11-03T07:03:35.773Z,28.13
2018-11-03T07:04:35.788Z,28.13
2018-11-03T07:05:35.805Z,28.13
2018-11-03T07:06:35.816Z,28.13
2018-11-03T07:07:35.829Z,33.75
2018-11-03T07:08:35.846Z,33.75
2018-11-03T07:09:35.859Z,33.75
2018-11-03T07:10:35.904Z,33.75
2018-11-03T07:11:36.047Z,33.75
2018-11-03T07:12:36.084Z,33.75
2018-11-03T07:13:35.916Z,33.75
2018-11-03T07:14:35.930Z,33.75
2018-11-03T07:15:35.945Z,39.38
2018-11-03T07:16:35.959Z,39.38
2018-11-03T07:17:36.006Z,39.38
2018-11-03T07:18:35.987Z,39.38
2018-11-03T07:19:36.106Z,39.38
2018-11-03T07:20:36.018Z,39.38
2018-11-03T07:21:36.123Z,39.38
2018-11-03T07:22:36.048Z,39.38
2018-11-03T07:23:36.061Z,39.38
2018-11-03T07:24:36.077Z,39.38
2018-11-03T07:25:36.126Z,39.38
2018-11-03T07:26:36.104Z,39.38
2018-11-03T07:27:36.120Z,39.38
2018-11-03T07:28:36.135Z,39.38
2018-11-03T07:29:36.225Z,45.00
2018-11-03T07:30:36.163Z,45.00
2018-11-03T07:31:36.178Z,45.00
2018-11-03T07:32:36.193Z,45.00
2018-11-03T07:33:36.208Z,39.38
2018-11-03T07:34:36.223Z,39.38
2018-11-03T07:35:36.238Z,39.38
2018-11-03T07:36:36.252Z,39.38
2018-11-03T07:37:36.267Z,39.38
2018-11-03T07:38:36.281Z,39.38
2018-11-03T07:39:36.295Z,39.38
2018-11-03T07:40:36.348Z,39.38
2018-11-03T07:41:36.421Z,39.38
2018-11-03T07:42:36.441Z,39.38
2018-11-03T07:43:36.358Z,45.00
2018-11-03T07:44:36.375Z,45.00
2018-11-03T07:45:36.385Z,39.38
2018-11-03T07:46:36.400Z,39.38
2018-11-03T07:47:36.415Z,45.00
2018-11-03T07:48:36.519Z,45.00
2018-11-03T07:49:36.447Z,45.00
2018-11-03T07:50:36.461Z,45.00
2018-11-03T07:51:36.474Z,45.00
2018-11-03T07:52:36.489Z,45.00
2018-11-03T07:53:36.522Z,45.00
2018-11-03T07:54:36.548Z,50.63
2018-11-03T07:55:36.535Z,45.00
2018-11-03T07:56:36.550Z,45.00
2018-11-03T07:57:36.569Z,45.00
2018-11-03T07:58:36.579Z,45.00
2018-11-03T07:59:36.598Z,45.00
2018-11-03T08:00:36.691Z,45.00
2018-11-03T08:01:36.626Z,45.00
2018-11-03T08:02:36.638Z,45.00
2018-11-03T08:03:36.654Z,50.63
2018-11-03T08:04:36.671Z,50.63
2018-11-03T08:05:36.686Z,50.63
2018-11-03T08:06:36.701Z,50.63
2018-11-03T08:07:36.716Z,45.00
2018-11-03T08:08:36.731Z,45.00
2018-11-03T08:09:36.747Z,45.00
2018-11-03T08:10:36.762Z,45.00
2018-11-03T08:11:36.776Z,45.00
2018-11-03T08:12:36.791Z,45.00
2018-11-03T08:13:36.833Z,45.00
2018-11-03T08:14:36.845Z,45.00
2018-11-03T08:15:36.896Z,45.00
2018-11-03T08:16:36.853Z,45.00
2018-11-03T08:17:36.869Z,45.00
2018-11-03T08:18:36.883Z,45.00
2018-11-03T08:19:36.899Z,45.00
2018-11-03T08:20:36.914Z,45.00
2018-11-03T08:21:36.930Z,45.00
2018-11-03T08:22:36.945Z,45.00
2018-11-03T08:23:36.960Z,45.00
2018-11-03T08:24:36.975Z,45.00
2018-11-03T08:25:36.991Z,45.00
2018-11-03T08:26:37.005Z,45.00
2018-11-03T08:27:37.021Z,45.00
2018-11-03T08:28:37.037Z,45.00
2018-11-03T08:29:37.052Z,45.00
2018-11-03T08:30:37.097Z,45.00
2018-11-03T08:31:37.219Z,50.63
2018-11-03T08:32:37.131Z,50.63
2018-11-03T08:33:37.124Z,50.63
2018-11-03T08:34:37.128Z,50.63
2018-11-03T08:35:37.142Z,50.63
2018-11-03T08:36:37.158Z,56.25
2018-11-03T08:37:37.175Z,56.25
2018-11-03T08:38:37.189Z,56.25
2018-11-03T08:39:37.316Z,56.25
2018-11-03T08:40:37.224Z,61.88
2018-11-03T08:41:37.264Z,61.88
2018-11-03T08:42:37.249Z,67.50
2018-11-03T08:43:37.266Z,67.50
2018-11-03T08:44:37.280Z,67.50
2018-11-03T08:45:37.295Z,73.13
2018-11-03T08:46:37.311Z,67.50
2018-11-03T08:47:37.326Z,67.50
2018-11-03T08:48:37.404Z,67.50
2018-11-03T08:49:37.357Z,73.13
2018-11-03T08:50:37.373Z,67.50
2018-11-03T08:51:37.387Z,61.88
2018-11-03T08:52:37.479Z,61.88
2018-11-03T08:53:37.419Z,61.88
2018-11-03T08:54:37.433Z,67.50
2018-11-03T08:55:37.449Z,73.13
2018-11-03T08:56:37.469Z,67.50
2018-11-03T08:57:37.479Z,73.13
2018-11-03T08:58:37.503Z,73.13
2018-11-03T08:59:37.646Z,73.13
2018-11-03T09:00:37.525Z,67.50
2018-11-03T09:01:37.541Z,73.13
2018-11-03T09:02:37.558Z,67.50
2018-11-03T09:03:37.571Z,73.13
2018-11-03T09:04:37.588Z,73.13
2018-11-03T09:05:37.603Z,73.13
2018-11-03T09:06:37.618Z,73.13
2018-11-03T09:07:37.633Z,73.13
2018-11-03T09:08:37.649Z,73.13
2018-11-03T09:09:37.664Z,78.75
2018-11-03T09:10:37.677Z,73.13
2018-11-03T09:11:37.696Z,78.75
2018-11-03T09:12:37.710Z,78.75
2018-11-03T09:13:37.726Z,84.38
2018-11-03T09:14:37.749Z,78.75
2018-11-03T09:15:37.755Z,84.38
2018-11-03T09:16:37.772Z,78.75
2018-11-03T09:17:37.793Z,90.00
2018-11-03T09:18:37.802Z,78.75
2018-11-03T09:19:37.819Z,90.00
2018-11-03T09:20:37.834Z,95.63
2018-11-03T09:21:37.981Z,95.63
2018-11-03T09:22:37.900Z,95.63
2018-11-03T09:23:37.882Z,90.00
2018-11-03T09:24:37.896Z,84.38
2018-11-03T09:25:37.910Z,78.75
2018-11-03T09:26:37.926Z,78.75
2018-11-03T09:27:37.945Z,73.13
2018-11-03T09:28:37.959Z,84.38
2018-11-03T09:29:37.975Z,84.38
2018-11-03T09:30:37.989Z,78.75
2018-11-03T09:31:38.023Z,73.13
2018-11-03T09:32:38.021Z,73.13
2018-11-03T09:33:38.038Z,73.13
2018-11-03T09:34:38.058Z,78.75
2018-11-03T09:35:38.068Z,90.00
2018-11-03T09:36:38.084Z,90.00
2018-11-03T09:37:38.106Z,78.75
2018-11-03T09:38:38.162Z,84.38
2018-11-03T09:39:38.131Z,84.38
2018-11-03T09:40:38.148Z,84.38
2018-11-03T09:41:38.165Z,84.38
2018-11-03T09:42:38.178Z,78.75
2018-11-03T09:43:38.196Z,78.75
2018-11-03T09:44:38.211Z,73.13
2018-11-03T09:45:38.227Z,78.75
2018-11-03T09:46:38.245Z,84.38
2018-11-03T09:47:38.259Z,78.75
2018-11-03T09:48:38.275Z,78.75
2018-11-03T09:49:38.291Z,78.75
2018-11-03T09:50:38.365Z,73.13
2018-11-03T09:51:38.322Z,84.38
2018-11-03T09:52:38.339Z,84.38
2018-11-03T09:53:38.356Z,84.38
2018-11-03T09:54:38.371Z,84.38
2018-11-03T09:55:38.388Z,78.75
2018-11-03T09:56:38.515Z,78.75
2018-11-03T09:57:38.420Z,78.75
2018-11-03T09:58:38.441Z,78.75
2018-11-03T09:59:38.452Z,84.38
2018-11-03T10:00:38.472Z,90.00
2018-11-03T10:01:38.484Z,90.00
2018-11-03T10:02:38.528Z,90.00
2018-11-03T10:03:38.516Z,84.38
2018-11-03T10:04:38.533Z,95.63
2018-11-03T10:05:38.550Z,101.25
2018-11-03T10:06:38.709Z,101.25
2018-11-03T10:07:38.581Z,101.25
2018-11-03T10:08:38.597Z,95.63
2018-11-03T10:09:38.614Z,95.63
2018-11-03T10:10:38.632Z,95.63
2018-11-03T10:11:38.649Z,90.00
2018-11-03T10:12:38.663Z,101.25
2018-11-03T10:13:38.680Z,95.63
2018-11-03T10:14:38.694Z,95.63
2018-11-03T10:15:38.721Z,90.00
2018-11-03T10:16:38.727Z,84.38
2018-11-03T10:17:38.745Z,84.38
2018-11-03T10:18:38.759Z,84.38
2018-11-03T10:19:38.778Z,84.38
2018-11-03T10:20:38.796Z,95.63
2018-11-03T10:21:38.812Z,101.25
2018-11-03T10:22:38.894Z,90.00
2018-11-03T10:23:38.842Z,106.88
2018-11-03T10:24:38.868Z,106.88
2018-11-03T10:25:38.877Z,101.25
2018-11-03T10:26:38.892Z,106.88
2018-11-03T10:27:38.909Z,106.88
2018-11-03T10:28:38.924Z,95.63
2018-11-03T10:29:38.942Z,106.88
2018-11-03T10:30:38.958Z,106.88
2018-11-03T10:31:38.975Z,106.88
2018-11-03T10:32:38.994Z,95.63
2018-11-03T10:33:39.097Z,101.25
2018-11-03T10:34:39.024Z,106.88
2018-11-03T10:35:39.040Z,106.88
2018-11-03T10:36:39.057Z,101.25
2018-11-03T10:37:39.100Z,95.63
2018-11-03T10:38:39.129Z,95.63
2018-11-03T10:39:39.110Z,101.25
2018-11-03T10:40:39.138Z,101.25
2018-11-03T10:41:39.148Z,101.25
2018-11-03T10:42:39.157Z,90.00
2018-11-03T10:43:39.173Z,101.25
2018-11-03T10:44:39.190Z,95.63
2018-11-03T10:45:39.207Z,101.25
2018-11-03T10:46:39.223Z,95.63
2018-11-03T10:47:39.241Z,84.38
2018-11-03T10:48:39.257Z,95.63
2018-11-03T10:49:39.875Z,90.00
2018-11-03T10:50:39.291Z,95.63
2018-11-03T10:51:39.308Z,90.00
2018-11-03T10:52:39.325Z,95.63
2018-11-03T10:53:39.433Z,84.38
2018-11-03T10:54:39.367Z,95.63
2018-11-03T10:55:39.375Z,90.00
2018-11-03T10:56:39.417Z,84.38
2018-11-03T10:57:39.408Z,84.38
2018-11-03T10:58:39.424Z,78.75
2018-11-03T10:59:39.464Z,90.00
2018-11-03T11:00:39.459Z,84.38
2018-11-03T11:01:39.482Z,90.00
2018-11-03T11:02:39.491Z,90.00
2018-11-03T11:03:39.685Z,90.00
2018-11-03T11:04:39.526Z,95.63
2018-11-03T11:05:39.543Z,95.63
2018-11-03T11:06:39.559Z,95.63
2018-11-03T11:07:39.575Z,90.00
2018-11-03T11:08:39.595Z,84.38
2018-11-03T11:09:39.630Z,84.38
2018-11-03T11:10:39.627Z,90.00
2018-11-03T11:11:39.644Z,84.38
2018-11-03T11:12:39.698Z,78.75
2018-11-03T11:13:39.677Z,84.38
2018-11-03T11:14:39.694Z,84.38
2018-11-03T11:15:39.800Z,78.75
2018-11-03T11:16:39.741Z,84.38
2018-11-03T11:17:39.746Z,78.75
2018-11-03T11:18:39.762Z,73.13
2018-11-03T11:19:39.779Z,73.13
2018-11-03T11:20:39.797Z,78.75
2018-11-03T11:21:39.815Z,78.75
2018-11-03T11:22:39.830Z,84.38
2018-11-03T11:23:39.989Z,78.75
2018-11-03T11:24:39.933Z,73.13
2018-11-03T11:25:39.881Z,78.75
2018-11-03T11:26:39.897Z,84.38
2018-11-03T11:27:39.915Z,84.38
2018-11-03T11:28:39.933Z,84.38
2018-11-03T11:29:39.949Z,78.75
2018-11-03T11:30:39.965Z,78.75
2018-11-03T11:31:39.983Z,78.75
2018-11-03T11:32:40.030Z,73.13
2018-11-03T11:33:40.018Z,73.13
2018-11-03T11:34:40.035Z,78.75
2018-11-03T11:35:40.098Z,73.13
2018-11-03T11:36:40.068Z,84.38
2018-11-03T11:37:40.165Z,78.75
2018-11-03T11:38:40.136Z,84.38
2018-11-03T11:39:40.118Z,78.75
2018-11-03T11:40:40.135Z,78.75
2018-11-03T11:41:40.152Z,78.75
2018-11-03T11:42:40.171Z,84.38
2018-11-03T11:43:40.187Z,84.38
2018-11-03T11:44:40.206Z,78.75
2018-11-03T11:45:40.247Z,78.75
2018-11-03T11:46:40.238Z,78.75
2018-11-03T11:47:40.256Z,78.75
2018-11-03T11:48:40.321Z,73.13
2018-11-03T11:49:40.294Z,84.38
2018-11-03T11:50:40.309Z,84.38
2018-11-03T11:51:40.324Z,84.38
2018-11-03T11:52:40.349Z,84.38
2018-11-03T11:53:40.359Z,84.38
2018-11-03T11:54:40.432Z,84.38
2018-11-03T11:55:40.400Z,78.75
2018-11-03T11:56:40.409Z,78.75
2018-11-03T11:57:40.427Z,73.13
2018-11-03T11:58:40.443Z,73.13
2018-11-03T11:59:40.462Z,73.13
2018-11-03T12:00:40.695Z,73.13
2018-11-03T12:01:40.497Z,78.75
2018-11-03T12:02:40.522Z,78.75
2018-11-03T12:03:40.531Z,84.38
2018-11-03T12:04:40.548Z,84.38
2018-11-03T12:05:40.566Z,78.75
2018-11-03T12:06:40.582Z,78.75
2018-11-03T12:07:40.600Z,84.38
2018-11-03T12:08:40.617Z,78.75
2018-11-03T12:09:40.635Z,84.38
2018-11-03T12:10:40.652Z,84.38
2018-11-03T12:11:40.669Z,78.75
2018-11-03T12:12:40.689Z,73.13
2018-11-03T12:13:40.704Z,78.75
2018-11-03T12:14:40.719Z,78.75
2018-11-03T12:15:40.766Z,84.38
2018-11-03T12:16:40.755Z,73.13
2018-11-03T12:17:40.772Z,78.75
2018-11-03T12:18:40.789Z,84.38
2018-11-03T12:19:40.806Z,78.75
2018-11-03T12:20:40.824Z,78.75
2018-11-03T12:21:40.914Z,78.75
2018-11-03T12:22:40.858Z,78.75
2018-11-03T12:23:40.878Z,78.75
2018-11-03T12:24:40.894Z,78.75
2018-11-03T12:25:41.033Z,78.75
2018-11-03T12:26:40.927Z,78.75
2018-11-03T12:27:40.945Z,78.75
2018-11-03T12:28:40.963Z,78.75
2018-11-03T12:29:40.981Z,78.75
2018-11-03T12:30:40.997Z,78.75
2018-11-03T12:31:41.021Z,78.75
2018-11-03T12:32:41.032Z,78.75
2018-11-03T12:33:41.050Z,78.75
2018-11-03T12:34:41.067Z,78.75
2018-11-03T12:35:41.085Z,78.75
2018-11-03T12:36:41.102Z,78.75
2018-11-03T12:37:41.120Z,78.75
2018-11-03T12:38:41.136Z,78.75
2018-11-03T12:39:41.154Z,78.75
2018-11-03T12:40:41.236Z,78.75
2018-11-03T12:41:41.189Z,78.75
2018-11-03T12:42:41.206Z,78.75
2018-11-03T12:43:41.224Z,78.75
2018-11-03T12:44:41.303Z,73.13
2018-11-03T12:45:41.261Z,73.13
2018-11-03T12:46:41.276Z,73.13
2018-11-03T12:47:41.294Z,73.13
2018-11-03T12:48:41.312Z,73.13
2018-11-03T12:49:41.781Z,73.13
2018-11-03T12:50:41.347Z,73.13
2018-11-03T12:51:41.402Z,73.13
2018-11-03T12:52:41.384Z,73.13
2018-11-03T12:53:41.400Z,73.13
2018-11-03T12:54:41.420Z,73.13
2018-11-03T12:55:41.444Z,73.13
2018-11-03T12:56:41.453Z,73.13
2018-11-03T12:57:41.470Z,73.13
2018-11-03T12:58:41.492Z,73.13
2018-11-03T12:59:41.508Z,73.13
2018-11-03T13:00:41.529Z,73.13
2018-11-03T13:01:41.575Z,73.13
2018-11-03T13:02:41.558Z,73.13
2018-11-03T13:03:41.577Z,73.13
2018-11-03T13:04:41.593Z,73.13